Time;durP1;ratioP1;P1;durP2;ratioP2;P2;SDS_P1;SDS_P2;PMS_P1;PMS_P2;Temp;Humidity;BMP_temperature;BMP_pressure;BME280_temperature;BME280_humidity;BME280_pressure;Samples;Min_cycle;Max_cycle;Signal;HPM_P1;HPM_P2
2022/06/21 00:00:18;;;;;;;5.95;4.22;;;;;;;19.90;52.65;94590.81;5055158;28;20231;-66
2022/06/21 00:02:44;;;;;;;5.40;4.90;;;;;;;19.92;52.07;94583.41;5056796;28;20264;-62
2022/06/21 00:05:14;;;;;;;8.05;4.95;;;;;;;20.01;51.08;94578.59;5054639;28;20303;-64
2022/06/21 00:07:40;;;;;;;8.10;4.57;;;;;;;19.99;50.85;94578.84;5055910;28;20203;-67
2022/06/21 00:10:09;;;;;;;7.03;4.68;;;;;;;19.98;51.76;94582.53;5060876;28;20201;-66
2022/06/21 00:12:35;;;;;;;5.80;4.40;;;;;;;19.79;52.24;94576.34;5059963;28;20265;-66
2022/06/21 00:15:00;;;;;;;6.32;4.68;;;;;;;19.72;52.12;94572.09;5058169;28;20232;-65
2022/06/21 00:17:26;;;;;;;5.75;4.03;;;;;;;19.68;52.34;94573.59;5052397;28;20216;-65
2022/06/21 00:19:51;;;;;;;4.93;4.53;;;;;;;19.83;51.72;94580.22;5050789;28;20216;-61
2022/06/21 00:22:19;;;;;;;5.88;3.95;;;;;;;19.76;51.65;94579.47;5055325;28;20197;-65
2022/06/21 00:24:46;;;;;;;5.95;4.40;;;;;;;19.60;52.58;94570.13;5052042;28;20225;-60
2022/06/21 00:27:17;;;;;;;5.28;3.80;;;;;;;19.52;52.71;94580.25;5061117;28;20221;-60
2022/06/21 00:29:43;;;;;;;6.00;4.70;;;;;;;19.53;53.03;94579.22;5051270;28;20340;-61
2022/06/21 00:32:18;;;;;;;6.97;4.43;;;;;;;19.56;52.54;94565.44;5051586;28;20319;-63
2022/06/21 00:34:45;;;;;;;5.97;4.13;;;;;;;19.44;52.77;94567.19;5058966;28;20203;-66
2022/06/21 00:37:21;;;;;;;5.95;4.20;;;;;;;19.51;53.10;94565.28;5061206;28;20290;-64
2022/06/21 00:39:46;;;;;;;5.57;4.00;;;;;;;19.58;52.71;94563.38;5052938;28;20221;-64
2022/06/21 00:42:28;;;;;;;4.35;3.90;;;;;;;19.51;52.33;94562.63;5052650;28;20225;-62
2022/06/21 00:45:07;;;;;;;4.90;4.35;;;;;;;19.45;52.41;94568.81;5054644;28;20311;-61
2022/06/21 00:47:35;;;;;;;4.90;4.50;;;;;;;19.38;52.54;94560.91;5055275;28;20242;-65
2022/06/21 00:50:11;;;;;;;4.57;4.13;;;;;;;19.59;52.38;94573.00;5056859;28;20230;-65
2022/06/21 00:52:50;;;;;;;6.38;4.40;;;;;;;19.43;53.47;94573.56;5051743;28;20208;-61
2022/06/21 00:55:33;;;;;;;4.82;4.32;;;;;;;19.19;53.99;94567.97;5051385;28;20290;-65
2022/06/21 00:58:00;;;;;;;4.75;4.10;;;;;;;19.35;53.71;94562.16;5054639;28;20252;-66
2022/06/21 01:00:34;;;;;;;5.38;4.60;;;;;;;19.36;53.73;94569.09;5059060;28;20228;-65
2022/06/21 01:03:31;;;;;;;5.82;4.38;;;;;;;18.90;54.94;94574.75;5054021;28;20232;-66
2022/06/21 01:06:01;;;;;;;5.75;4.50;;;;;;;18.97;54.88;94572.03;5036225;28;20230;-61
2022/06/21 01:08:35;;;;;;;5.28;3.83;;;;;;;18.97;55.03;94558.72;5019682;28;20305;-63
2022/06/21 01:11:08;;;;;;;6.57;4.78;;;;;;;18.98;55.18;94555.84;5034861;28;20243;-61
2022/06/21 01:13:41;;;;;;;4.97;4.40;;;;;;;19.04;54.78;94562.16;5021150;28;20233;-64
2022/06/21 01:16:07;;;;;;;5.57;4.38;;;;;;;19.01;54.88;94562.59;5035936;28;20236;-64
2022/06/21 01:18:34;;;;;;;8.48;4.40;;;;;;;18.99;54.92;94551.31;5020868;28;20239;-65
2022/06/21 01:21:02;;;;;;;6.75;4.57;;;;;;;19.02;54.47;94562.38;5023215;28;20251;-64
2022/06/21 01:23:55;;;;;;;5.22;4.72;;;;;;;18.62;55.48;94570.53;5033819;28;20225;-65
2022/06/21 01:26:44;;;;;;;5.47;3.80;;;;;;;18.73;54.15;94575.19;5019905;28;20259;-62
2022/06/21 01:29:14;;;;;;;5.22;3.50;;;;;;;18.89;53.07;94571.25;5018406;28;20221;-60
2022/06/21 01:31:40;;;;;;;7.07;4.20;;;;;;;18.85;52.52;94578.06;5034468;28;20221;-63
2022/06/21 01:34:15;;;;;;;4.13;3.58;;;;;;;18.98;52.15;94566.50;5033543;28;20209;-62
2022/06/21 01:36:41;;;;;;;5.32;3.40;;;;;;;18.76;52.80;94578.50;5021503;28;20594;-60
2022/06/21 01:39:10;;;;;;;6.38;4.00;;;;;;;18.65;53.66;94582.63;5035808;28;20248;-66
2022/06/21 01:42:01;;;;;;;6.50;4.15;;;;;;;18.59;54.58;94580.81;5039251;28;20590;-65
2022/06/21 01:44:31;;;;;;;3.92;3.45;;;;;;;18.69;54.24;94579.31;5056946;28;20266;-64
2022/06/21 01:47:00;;;;;;;5.05;3.90;;;;;;;18.67;55.02;94575.25;5050818;28;20223;-60
2022/06/21 01:49:31;;;;;;;4.45;3.85;;;;;;;18.56;55.00;94581.25;5059482;28;20209;-65
2022/06/21 01:52:10;;;;;;;4.53;3.70;;;;;;;18.65;54.98;94578.09;5053274;28;20284;-66
2022/06/21 01:54:39;;;;;;;6.28;4.65;;;;;;;18.71;55.18;94581.75;5060417;28;20213;-61
2022/06/21 01:57:07;;;;;;;8.30;4.28;;;;;;;18.58;55.06;94572.00;5053343;28;20297;-60
2022/06/21 01:59:38;;;;;;;6.22;4.45;;;;;;;18.51;56.33;94572.03;5053639;28;20307;-61
2022/06/21 02:02:12;;;;;;;5.97;3.90;;;;;;;18.57;56.46;94581.00;5052151;28;20283;-64
2022/06/21 02:04:58;;;;;;;5.57;4.60;;;;;;;18.48;56.74;94579.63;5053290;28;20216;-61
2022/06/21 02:07:29;;;;;;;5.47;4.47;;;;;;;18.37;56.89;94580.28;5067012;28;20251;-61
2022/06/21 02:10:12;;;;;;;5.05;4.55;;;;;;;18.14;57.69;94586.09;5085378;28;21199;-60
2022/06/21 02:12:50;;;;;;;5.65;4.20;;;;;;;18.40;56.61;94587.84;5047107;28;20233;-64
2022/06/21 02:15:48;;;;;;;4.82;4.30;;;;;;;18.39;57.29;94583.53;5057931;28;20667;-65
2022/06/21 02:18:17;;;;;;;4.60;4.20;;;;;;;18.45;56.83;94580.06;5052191;28;20224;-64
2022/06/21 02:21:01;;;;;;;5.13;4.68;;;;;;;18.60;56.60;94585.09;5059595;28;20224;-65
2022/06/21 02:23:27;;;;;;;5.72;4.57;;;;;;;18.41;57.30;94582.31;5049471;28;20352;-65
2022/06/21 02:25:55;;;;;;;5.15;4.28;;;;;;;18.31;57.53;94584.63;5052222;28;20292;-65
2022/06/21 02:28:22;;;;;;;7.53;4.68;;;;;;;18.38;57.29;94572.09;5064725;28;20201;-64
2022/06/21 02:30:52;;;;;;;6.13;5.28;;;;;;;18.34;57.33;94568.22;5062368;28;20228;-65
2022/06/21 02:33:23;;;;;;;7.05;5.28;;;;;;;18.43;56.67;94572.25;5061265;28;20261;-65
2022/06/21 02:35:56;;;;;;;5.47;5.00;;;;;;;18.47;56.52;94570.00;5055629;28;20299;-62
2022/06/21 02:38:29;;;;;;;6.45;5.72;;;;;;;18.40;56.56;94559.38;5058622;28;20225;-65
2022/06/21 02:41:05;;;;;;;8.93;5.85;;;;;;;18.18;57.23;94571.34;5052283;28;21227;-64
2022/06/21 02:43:38;;;;;;;5.57;4.97;;;;;;;18.18;57.11;94566.03;5053126;28;20255;-65
2022/06/21 02:46:11;;;;;;;7.18;5.20;;;;;;;18.14;57.30;94559.47;5051959;28;20307;-65
2022/06/21 02:49:01;;;;;;;6.30;5.13;;;;;;;18.25;56.59;94570.28;5057492;28;20231;-63
2022/06/21 02:51:31;;;;;;;5.55;4.95;;;;;;;18.23;56.61;94569.69;5052267;28;20226;-65
2022/06/21 02:54:04;;;;;;;5.72;5.15;;;;;;;18.23;56.31;94566.19;5059566;28;20217;-64
2022/06/21 02:56:47;;;;;;;6.15;5.00;;;;;;;18.05;56.57;94573.00;5053160;28;20225;-66
2022/06/21 02:59:14;;;;;;;5.18;4.70;;;;;;;18.17;56.24;94564.38;5053991;28;20225;-61
2022/06/21 03:01:41;;;;;;;5.10;4.60;;;;;;;18.14;56.06;94567.47;5059833;28;20201;-65
2022/06/21 03:04:14;;;;;;;5.20;4.70;;;;;;;18.00;56.56;94559.50;5062856;28;20201;-62
2022/06/21 03:06:39;;;;;;;6.78;4.68;;;;;;;18.04;56.44;94557.25;5055591;28;20230;-62
2022/06/21 03:09:09;;;;;;;5.72;5.07;;;;;;;17.83;57.17;94558.34;5057351;28;20232;-64
2022/06/21 03:11:41;;;;;;;5.57;4.68;;;;;;;17.98;57.29;94556.25;5058939;28;20230;-64
2022/06/21 03:14:12;;;;;;;5.88;5.28;;;;;;;18.07;56.41;94555.00;5056502;28;20283;-61
2022/06/21 03:16:39;;;;;;;6.88;4.88;;;;;;;18.19;56.06;94562.34;5073796;28;20208;-64
2022/06/21 03:19:17;;;;;;;5.03;4.50;;;;;;;17.98;56.77;94550.91;5062131;28;20190;-66
2022/06/21 03:21:43;;;;;;;5.43;4.97;;;;;;;17.98;57.26;94556.25;5061054;28;20255;-64
2022/06/21 03:24:15;;;;;;;5.25;4.68;;;;;;;17.92;57.99;94550.94;5065209;28;20291;-66
2022/06/21 03:26:43;;;;;;;6.13;5.53;;;;;;;18.08;57.55;94545.19;5053609;28;20220;-67
2022/06/21 03:29:08;;;;;;;5.50;5.00;;;;;;;17.94;57.97;94540.94;5060213;28;20266;-65
2022/06/21 03:31:38;;;;;;;7.30;5.30;;;;;;;17.76;58.15;94552.19;5053810;28;20765;-66
2022/06/21 03:34:09;;;;;;;7.93;5.25;;;;;;;17.78;58.31;94547.47;5060063;28;20315;-61
2022/06/21 03:36:35;;;;;;;8.00;5.10;;;;;;;17.78;58.55;94550.13;5058607;28;20307;-67
2022/06/21 03:39:16;;;;;;;8.60;5.07;;;;;;;17.97;58.05;94546.63;5062050;28;20315;-67
2022/06/21 03:41:44;;;;;;;5.60;5.00;;;;;;;18.06;57.63;94545.38;5059471;28;20217;-66
2022/06/21 03:44:25;;;;;;;8.23;5.05;;;;;;;18.02;58.14;94562.78;5053860;28;20249;-64
2022/06/21 03:47:29;;;;;;;7.65;4.93;;;;;;;17.76;59.11;94553.00;5056949;28;20223;-65
2022/06/21 03:50:09;;;;;;;6.75;6.05;;;;;;;18.05;57.96;94567.69;5075559;28;20237;-64
2022/06/21 03:52:57;;;;;;;7.05;5.82;;;;;;;18.17;57.48;94575.03;5025346;28;20275;-64
2022/06/21 03:55:47;;;;;;;7.68;5.93;;;;;;;17.99;58.48;94579.19;5044890;28;20225;-66
2022/06/21 03:58:37;;;;;;;6.38;5.72;;;;;;;18.12;58.12;94580.16;5045587;28;20304;-64
2022/06/21 04:01:12;;;;;;;7.18;5.63;;;;;;;18.19;57.72;94575.63;5063946;28;20823;-66
2022/06/21 04:03:59;;;;;;;7.47;6.40;;;;;;;18.21;57.53;94579.72;5046876;28;20308;-64
2022/06/21 04:06:35;;;;;;;6.95;6.25;;;;;;;18.43;57.12;94582.91;5054145;28;20283;-66
2022/06/21 04:09:31;;;;;;;11.05;6.30;;;;;;;18.42;56.79;94564.50;5045645;28;20305;-66
2022/06/21 04:12:02;;;;;;;7.53;6.75;;;;;;;18.44;56.73;94560.63;5079168;28;20286;-65
2022/06/21 04:15:03;;;;;;;10.90;6.10;;;;;;;18.51;55.87;94563.22;5078806;28;20237;-65
2022/06/21 04:17:40;;;;;;;11.52;5.95;;;;;;;18.55;55.96;94559.13;5005031;28;20229;-62
2022/06/21 04:20:11;;;;;;;7.10;5.72;;;;;;;18.59;56.07;94557.66;5022234;28;20232;-67
2022/06/21 04:22:47;;;;;;;7.88;6.50;;;;;;;19.05;54.69;94553.13;5005947;28;20210;-64
2022/06/21 04:25:25;;;;;;;8.75;5.97;;;;;;;19.14;54.11;94554.50;5033161;28;20201;-61
2022/06/21 04:27:55;;;;;;;7.78;6.53;;;;;;;18.96;55.00;94552.56;5013124;28;20259;-66
2022/06/21 04:30:28;;;;;;;7.60;6.05;;;;;;;19.00;54.44;94548.44;5035851;28;20214;-63
2022/06/21 04:33:08;;;;;;;6.15;5.55;;;;;;;19.05;54.14;94539.81;5018333;28;20237;-67
2022/06/21 04:35:42;;;;;;;7.00;6.40;;;;;;;19.11;53.73;94538.94;4999244;28;20237;-64
2022/06/21 04:38:22;;;;;;;9.65;7.03;;;;;;;19.17;53.66;94538.91;5033038;28;20246;-61
2022/06/21 04:41:16;;;;;;;9.27;7.07;;;;;;;19.17;53.85;94535.41;5035373;28;20218;-61
2022/06/21 04:43:48;;;;;;;7.20;6.50;;;;;;;19.20;53.51;94529.66;5002362;28;20222;-64
2022/06/21 04:46:47;;;;;;;7.22;6.53;;;;;;;19.16;53.54;94541.75;4984441;28;20206;-63
2022/06/21 04:49:26;;;;;;;7.53;6.82;;;;;;;19.18;53.44;94540.50;4952117;28;20235;-66
2022/06/21 04:52:00;;;;;;;9.05;6.57;;;;;;;19.18;53.77;94537.84;4952091;28;20287;-60
2022/06/21 04:54:32;;;;;;;9.23;7.30;;;;;;;19.27;53.31;94541.09;4917225;28;20233;-64
2022/06/21 04:56:58;;;;;;;9.13;7.57;;;;;;;19.41;53.10;94554.31;4909659;28;20245;-64
2022/06/21 04:59:58;;;;;;;8.82;7.50;;;;;;;19.34;53.22;94552.50;4911391;29;20234;-62
2022/06/21 05:02:28;;;;;;;8.85;6.85;;;;;;;19.32;53.85;94562.56;4887833;29;20246;-63
2022/06/21 05:05:02;;;;;;;7.45;6.78;;;;;;;19.36;53.40;94562.94;4887444;29;20214;-65
2022/06/21 05:07:33;;;;;;;7.93;7.20;;;;;;;18.99;54.25;94567.31;4888560;29;20222;-63
2022/06/21 05:09:59;;;;;;;7.40;6.55;;;;;;;19.35;53.12;94562.16;4870263;29;20226;-63
2022/06/21 05:12:33;;;;;;;9.80;6.55;;;;;;;19.51;53.34;94578.59;4883216;29;20410;-65
2022/06/21 05:15:22;;;;;;;7.40;6.53;;;;;;;19.13;54.34;94580.31;4887322;29;20293;-66
2022/06/21 05:17:54;;;;;;;8.73;7.38;;;;;;;19.55;53.24;94577.97;4885761;29;20241;-64
2022/06/21 05:20:24;;;;;;;9.68;7.13;;;;;;;19.50;53.45;94577.00;4911870;28;20732;-66
2022/06/21 05:22:54;;;;;;;9.85;7.75;;;;;;;19.44;53.53;94583.19;4928032;28;20201;-66
2022/06/21 05:25:36;;;;;;;12.02;8.23;;;;;;;19.49;53.68;94589.50;4965824;28;20233;-63
2022/06/21 05:28:28;;;;;;;8.25;7.55;;;;;;;19.69;53.37;94578.69;5003851;28;20238;-66
2022/06/21 05:30:59;;;;;;;8.27;7.57;;;;;;;19.77;53.45;94577.59;4997062;28;20233;-65
2022/06/21 05:33:35;;;;;;;8.27;7.47;;;;;;;19.82;52.59;94588.44;5000187;28;20279;-62
2022/06/21 05:36:04;;;;;;;9.73;8.32;;;;;;;19.87;53.07;94579.78;4991063;28;20312;-65
2022/06/21 05:38:45;;;;;;;10.30;7.95;;;;;;;19.78;53.08;94580.06;5005668;28;20221;-68
2022/06/21 05:41:29;;;;;;;10.00;9.00;;;;;;;19.89;52.96;94567.84;5086649;28;20232;-61
2022/06/21 05:44:01;;;;;;;8.55;7.70;;;;;;;19.75;53.23;94571.66;5065971;28;20212;-65
2022/06/21 05:46:30;;;;;;;11.15;8.52;;;;;;;19.76;53.51;94576.78;5053903;28;20284;-67
2022/06/21 05:48:58;;;;;;;10.27;8.20;;;;;;;19.86;53.94;94570.97;5053697;28;20332;-66
2022/06/21 05:51:33;;;;;;;8.57;7.68;;;;;;;19.91;53.90;94571.09;5055669;28;20225;-64
2022/06/21 05:54:04;;;;;;;7.95;7.25;;;;;;;19.93;53.53;94568.22;5070637;28;20213;-63
2022/06/21 05:56:31;;;;;;;9.25;7.75;;;;;;;20.09;53.75;94567.63;5055032;28;20220;-63
2022/06/21 05:59:10;;;;;;;11.82;7.55;;;;;;;20.08;53.06;94566.03;5062004;28;20216;-65
2022/06/21 06:01:51;;;;;;;8.85;7.82;;;;;;;20.34;51.45;94559.56;5065286;28;20280;-60
2022/06/21 06:04:28;;;;;;;9.75;8.02;;;;;;;20.34;51.30;94569.41;5065283;28;20208;-62
2022/06/21 06:06:56;;;;;;;9.35;8.20;;;;;;;20.14;51.53;94562.44;5053413;28;20228;-64
2022/06/21 06:09:27;;;;;;;9.85;8.75;;;;;;;20.03;51.80;94563.19;5048640;28;20255;-64
2022/06/21 06:12:18;;;;;;;8.90;8.00;;;;;;;20.19;51.69;94565.28;5050751;28;20232;-64
2022/06/21 06:14:51;;;;;;;9.20;7.95;;;;;;;20.56;50.78;94567.16;5051352;28;20290;-65
2022/06/21 06:17:16;;;;;;;11.55;8.05;;;;;;;20.49;50.07;94573.34;5055806;28;20331;-67
2022/06/21 06:20:12;;;;;;;10.30;7.25;;;;;;;20.51;51.01;94575.81;5052687;28;20271;-62
2022/06/21 06:22:52;;;;;;;8.73;7.90;;;;;;;20.56;51.12;94575.97;5022942;28;20210;-65
2022/06/21 06:25:39;;;;;;;10.45;7.47;;;;;;;20.57;50.91;94571.44;5042392;28;20224;-62
2022/06/21 06:28:15;;;;;;;9.30;8.38;;;;;;;20.79;50.66;94571.78;5024258;28;20228;-66
2022/06/21 06:30:47;;;;;;;10.60;7.45;;;;;;;20.75;50.85;94575.97;5040073;28;20229;-64
2022/06/21 06:33:22;;;;;;;11.73;9.18;;;;;;;20.79;49.89;94590.47;5026238;28;20718;-64
2022/06/21 06:35:48;;;;;;;11.77;10.57;;;;;;;20.84;50.46;94578.06;5039867;28;20212;-65
2022/06/21 06:38:16;;;;;;;10.98;8.13;;;;;;;21.10;50.16;94579.56;5018696;28;20240;-64
2022/06/21 06:41:13;;;;;;;9.35;8.35;;;;;;;21.17;50.12;94586.66;5041818;28;20221;-61
2022/06/21 06:43:50;;;;;;;8.50;7.47;;;;;;;21.06;50.48;94585.59;5021588;28;20228;-65
2022/06/21 06:46:27;;;;;;;8.98;8.13;;;;;;;21.20;49.67;94573.69;5024174;28;20225;-63
2022/06/21 06:48:59;;;;;;;8.38;7.57;;;;;;;21.38;49.61;94574.66;5025005;28;20225;-64
2022/06/21 06:51:37;;;;;;;10.30;7.18;;;;;;;21.43;49.57;94572.94;5040430;28;20225;-63
2022/06/21 06:54:09;;;;;;;9.13;7.53;;;;;;;21.47;49.45;94568.75;5043105;28;20225;-66
2022/06/21 06:56:47;;;;;;;11.95;7.03;;;;;;;21.51;49.15;94569.09;5025386;28;20245;-65
2022/06/21 06:59:17;;;;;;;8.60;6.93;;;;;;;21.53;49.77;94562.47;5029118;28;20237;-64
2022/06/21 07:01:59;;;;;;;12.95;7.40;;;;;;;21.58;49.89;94559.94;5055365;28;20327;-61
2022/06/21 07:04:32;;;;;;;8.95;6.57;;;;;;;21.62;50.13;94557.59;5054150;28;20556;-67
2022/06/21 07:07:06;;;;;;;9.45;7.50;;;;;;;21.76;49.05;94558.22;5068325;28;20221;-63
2022/06/21 07:09:51;;;;;;;8.45;6.78;;;;;;;21.68;48.98;94554.03;5060018;28;20230;-62
2022/06/21 07:12:16;;;;;;;13.27;7.03;;;;;;;21.85;48.73;94558.69;5048539;28;20233;-64
2022/06/21 07:14:44;;;;;;;8.40;7.57;;;;;;;21.91;48.58;94547.84;5055028;28;20241;-63
2022/06/21 07:17:33;;;;;;;10.10;6.70;;;;;;;22.16;48.29;94554.78;5053028;28;20312;-64
2022/06/21 07:19:59;;;;;;;12.63;6.90;;;;;;;22.16;48.79;94557.47;5054774;28;20246;-63
2022/06/21 07:22:31;;;;;;;10.45;6.43;;;;;;;22.20;48.68;94554.13;5060374;28;20200;-63
2022/06/21 07:25:26;;;;;;;7.95;6.68;;;;;;;22.22;48.45;94548.56;5043589;28;20298;-62
2022/06/21 07:28:10;;;;;;;8.85;7.85;;;;;;;22.32;48.87;94547.94;5049692;28;20223;-64
2022/06/21 07:30:42;;;;;;;9.10;6.68;;;;;;;22.51;48.55;94561.97;5039107;28;20263;-64
2022/06/21 07:33:24;;;;;;;12.57;6.70;;;;;;;22.60;48.69;94557.91;5045137;28;20243;-63
2022/06/21 07:35:57;;;;;;;8.30;6.70;;;;;;;22.79;48.98;94553.97;5053221;28;20213;-68
2022/06/21 07:38:27;;;;;;;6.75;5.85;;;;;;;22.75;49.69;94546.63;5058618;28;20312;-62
2022/06/21 07:41:01;;;;;;;7.38;5.90;;;;;;;22.95;48.91;94556.94;5055128;28;20299;-64
2022/06/21 07:43:43;;;;;;;8.10;6.85;;;;;;;23.08;48.51;94548.66;5074868;28;20291;-66
2022/06/21 07:46:11;;;;;;;10.23;6.63;;;;;;;23.42;48.46;94554.06;5055202;28;20228;-64
2022/06/21 07:48:43;;;;;;;11.52;7.07;;;;;;;23.70;48.95;94563.91;5055002;28;20247;-66
2022/06/21 07:51:32;;;;;;;8.15;5.97;;;;;;;23.88;47.30;94577.09;5058922;28;20224;-64
2022/06/21 07:54:13;;;;;;;6.80;5.28;;;;;;;24.12;44.12;94560.81;5058790;28;20217;-68
2022/06/21 07:56:46;;;;;;;7.47;4.32;;;;;;;24.06;44.46;94567.13;5055023;28;20236;-66
2022/06/21 07:59:26;;;;;;;5.72;4.63;;;;;;;24.05;44.75;94573.59;5060883;28;20239;-67
2022/06/21 08:07:41;;;;;;;5.53;4.63;;;;;;;24.25;44.33;94576.56;5051589;28;20300;-65
2022/06/21 08:10:17;;;;;;;5.43;4.30;;;;;;;24.27;44.72;94584.38;5064827;28;20280;-63
2022/06/21 08:12:43;;;;;;;5.10;4.60;;;;;;;24.26;44.95;94583.56;5057085;28;20225;-65
2022/06/21 08:15:09;;;;;;;5.60;4.85;;;;;;;24.30;44.86;94576.63;5055762;28;20232;-65
2022/06/21 08:17:53;;;;;;;6.45;5.40;;;;;;;24.49;44.99;94593.31;5060519;28;20248;-63
2022/06/21 08:20:25;;;;;;;8.07;5.47;;;;;;;24.58;44.79;94581.06;5074156;28;20222;-63
2022/06/21 08:22:58;;;;;;;8.35;5.18;;;;;;;24.64;44.75;94590.81;5057366;28;20251;-67
2022/06/21 08:25:32;;;;;;;7.93;5.90;;;;;;;24.78;44.84;94593.13;5071172;28;20200;-61
2022/06/21 08:28:12;;;;;;;9.32;5.68;;;;;;;24.93;44.11;94587.91;5053024;28;20275;-65
2022/06/21 08:30:53;;;;;;;8.43;6.60;;;;;;;25.15;44.96;94595.16;5052758;28;20319;-64
2022/06/21 08:33:39;;;;;;;8.27;6.28;;;;;;;25.17;44.27;94596.56;5072475;28;20220;-61
2022/06/21 08:36:24;;;;;;;8.73;6.25;;;;;;;25.27;43.45;94609.31;5055810;28;20279;-63
2022/06/21 08:39:03;;;;;;;7.75;6.70;;;;;;;25.28;43.73;94590.19;5050388;28;20224;-65
2022/06/21 08:41:52;;;;;;;10.73;7.28;;;;;;;25.31;43.41;94599.66;5049678;28;20220;-70
2022/06/21 08:44:30;;;;;;;9.10;6.93;;;;;;;25.23;43.24;94590.19;5052588;28;20221;-62
2022/06/21 08:47:13;;;;;;;10.60;6.78;;;;;;;25.22;44.55;94585.84;5053259;28;20209;-64
2022/06/21 08:50:14;;;;;;;8.68;6.70;;;;;;;25.29;44.33;94591.03;5055204;28;20206;-68
2022/06/21 08:52:48;;;;;;;15.43;7.35;;;;;;;25.22;44.20;94582.34;5013078;28;20218;-65
2022/06/21 08:55:32;;;;;;;12.05;7.18;;;;;;;25.18;44.74;94581.22;5030256;28;20214;-62
2022/06/21 08:58:00;;;;;;;10.25;7.85;;;;;;;25.22;44.74;94564.31;5033452;28;20288;-64
2022/06/21 09:01:00;;;;;;;8.10;6.65;;;;;;;25.25;45.13;94571.06;4996436;28;20269;-65
2022/06/21 09:04:02;;;;;;;9.27;6.55;;;;;;;25.24;44.89;94572.16;5030561;28;20269;-68
2022/06/21 09:06:55;;;;;;;8.73;7.30;;;;;;;25.28;45.88;94567.88;5026563;28;20253;-61
2022/06/21 09:09:30;;;;;;;7.63;6.90;;;;;;;25.29;45.28;94569.50;5031656;28;20230;-64
2022/06/21 09:12:23;;;;;;;9.48;6.88;;;;;;;25.36;45.37;94553.94;5028785;28;20276;-62
2022/06/21 09:15:18;;;;;;;9.30;7.38;;;;;;;25.39;45.88;94545.34;5013236;28;20277;-64
2022/06/21 09:18:09;;;;;;;10.23;7.60;;;;;;;25.50;45.56;94563.25;5027488;28;20226;-65
2022/06/21 09:20:46;;;;;;;8.13;7.32;;;;;;;25.58;45.08;94555.75;4996878;28;20295;-64
2022/06/21 09:23:28;;;;;;;11.52;7.93;;;;;;;25.60;45.14;94556.31;5030223;28;20226;-62
2022/06/21 09:25:59;;;;;;;7.93;7.07;;;;;;;25.62;44.46;94559.56;5035267;28;20228;-65
2022/06/21 09:28:37;;;;;;;10.00;7.57;;;;;;;25.69;45.18;94552.91;5055124;28;20241;-68
2022/06/21 09:31:39;;;;;;;10.00;7.57;;;;;;;25.80;45.03;94556.47;5051622;28;20962;-64
2022/06/21 09:34:17;;;;;;;8.50;7.63;;;;;;;25.91;44.44;94554.72;5051130;28;20434;-62
2022/06/21 09:37:04;;;;;;;10.40;7.57;;;;;;;25.93;43.84;94553.38;5051291;28;20294;-67
2022/06/21 09:39:33;;;;;;;8.73;7.93;;;;;;;26.03;43.89;94549.13;5068115;28;20224;-65
2022/06/21 09:42:16;;;;;;;9.57;6.90;;;;;;;26.13;44.67;94538.41;5052136;28;20220;-61
2022/06/21 09:45:13;;;;;;;7.70;6.93;;;;;;;26.28;44.32;94545.78;5051564;28;20224;-65
2022/06/21 09:47:51;;;;;;;10.55;7.60;;;;;;;26.41;44.66;94545.31;5058703;28;20235;-64
2022/06/21 09:50:16;;;;;;;9.07;7.35;;;;;;;26.59;44.31;94550.25;5050244;28;20226;-62
2022/06/21 09:52:52;;;;;;;9.52;6.97;;;;;;;26.73;43.66;94542.50;5052263;28;20495;-66
2022/06/21 09:55:29;;;;;;;8.20;6.80;;;;;;;26.88;42.98;94539.03;5069478;28;20209;-62
2022/06/21 09:58:34;;;;;;;11.13;7.60;;;;;;;27.01;42.70;94537.72;5050251;28;20224;-67
2022/06/21 10:01:32;;;;;;;8.25;7.45;;;;;;;27.15;41.81;94529.91;5051894;28;20235;-69
2022/06/21 10:04:04;;;;;;;9.75;7.32;;;;;;;27.15;41.88;94524.53;5054358;28;20363;-70
2022/06/21 10:06:29;;;;;;;10.00;7.68;;;;;;;27.32;41.92;94544.03;5051040;28;20328;-63
2022/06/21 10:09:22;;;;;;;8.88;7.97;;;;;;;27.44;42.30;94549.97;5057665;28;20315;-68
2022/06/21 10:12:26;;;;;;;7.75;7.18;;;;;;;27.63;40.99;94528.63;5067928;28;20229;-64
2022/06/21 10:15:30;;;;;;;7.25;6.65;;;;;;;27.55;40.38;94536.47;5062284;28;20251;-63
2022/06/21 10:18:18;;;;;;;7.53;6.68;;;;;;;27.71;40.48;94533.50;5031454;28;20229;-63
2022/06/21 10:20:52;;;;;;;8.95;7.25;;;;;;;27.86;40.31;94529.22;5036639;28;20221;-63
2022/06/21 10:23:46;;;;;;;7.55;6.93;;;;;;;28.09;39.44;94525.09;5033707;28;20237;-67
2022/06/21 10:26:28;;;;;;;7.97;7.03;;;;;;;28.03;39.93;94535.13;5010984;28;20238;-61
2022/06/21 10:29:05;;;;;;;7.82;6.97;;;;;;;28.22;39.95;94526.44;5015934;28;20229;-63
2022/06/21 10:31:45;;;;;;;10.65;7.50;;;;;;;28.51;39.12;94529.34;5018629;28;20311;-69
2022/06/21 10:34:14;;;;;;;8.88;7.10;;;;;;;28.56;37.83;94526.63;5013010;28;20280;-66
2022/06/21 10:37:01;;;;;;;7.13;6.43;;;;;;;28.41;37.98;94532.06;5015877;28;20229;-64
2022/06/21 10:40:13;;;;;;;7.47;6.82;;;;;;;28.13;39.22;94518.88;5027123;28;20228;-68
2022/06/21 10:43:09;;;;;;;7.72;6.95;;;;;;;28.18;39.04;94536.19;4959939;28;20359;-64
2022/06/21 10:45:49;;;;;;;7.38;6.53;;;;;;;28.28;39.04;94549.66;4959426;28;20326;-68
2022/06/21 10:48:45;;;;;;;7.18;6.25;;;;;;;28.28;38.58;94544.25;4974991;28;20268;-64
2022/06/21 10:51:27;;;;;;;9.02;7.10;;;;;;;28.45;38.50;94536.69;4976253;28;20220;-68
2022/06/21 10:54:14;;;;;;;8.95;7.00;;;;;;;28.57;38.77;94550.72;4942883;28;20254;-63
2022/06/21 11:02:43;;;;;;;8.45;7.22;;;;;;;29.12;36.77;94529.09;4974148;28;20286;-63
2022/06/21 11:05:33;;;;;;;7.22;6.28;;;;;;;29.08;36.98;94536.16;4978093;28;20383;-71
2022/06/21 11:08:06;;;;;;;7.35;6.47;;;;;;;29.14;37.16;94531.53;4978194;28;20243;-69
2022/06/21 11:10:38;;;;;;;7.55;6.70;;;;;;;29.22;37.42;94528.22;4967952;28;20618;-64
2022/06/21 11:13:11;;;;;;;7.60;6.80;;;;;;;29.44;37.30;94539.44;4993619;28;20355;-64
2022/06/21 11:15:42;;;;;;;7.45;6.45;;;;;;;29.49;36.54;94533.19;5044179;28;20309;-67
2022/06/21 11:18:23;;;;;;;7.50;6.72;;;;;;;29.48;36.34;94544.28;5055796;28;20276;-70
2022/06/21 11:21:24;;;;;;;7.78;6.95;;;;;;;29.40;36.38;94545.69;5049389;28;20303;-63
2022/06/21 11:23:49;;;;;;;7.50;6.80;;;;;;;29.63;36.85;94555.81;5023039;28;20214;-67
2022/06/21 11:26:26;;;;;;;8.10;6.93;;;;;;;29.80;36.53;94543.81;5027673;28;20232;-61
2022/06/21 11:29:10;;;;;;;7.38;6.78;;;;;;;30.13;36.31;94541.34;5059887;28;20267;-63
2022/06/21 11:32:05;;;;;;;8.20;6.50;;;;;;;30.31;35.85;94548.75;5023799;28;20241;-66
2022/06/21 11:34:39;;;;;;;7.78;7.10;;;;;;;30.21;36.36;94548.88;5000662;28;20218;-66
2022/06/21 11:37:16;;;;;;;9.35;7.82;;;;;;;29.80;37.03;94538.38;5001920;28;20222;-62
2022/06/21 11:40:00;;;;;;;8.40;7.57;;;;;;;29.78;36.75;94546.81;4986568;28;20229;-65
2022/06/21 11:42:53;;;;;;;8.00;7.30;;;;;;;29.95;36.42;94549.09;5001053;28;20218;-62
2022/06/21 11:45:32;;;;;;;7.93;7.13;;;;;;;30.09;36.89;94549.22;5001828;28;20281;-65
2022/06/21 11:48:21;;;;;;;8.38;7.50;;;;;;;30.48;36.06;94548.34;4977133;28;20219;-66
2022/06/21 11:51:12;;;;;;;8.02;7.20;;;;;;;30.64;35.50;94538.13;4987456;28;20269;-65
2022/06/21 11:54:01;;;;;;;9.90;6.88;;;;;;;30.90;34.94;94534.03;4981679;28;20346;-61
2022/06/21 11:56:55;;;;;;;8.40;7.60;;;;;;;31.23;34.63;94533.31;4980968;28;20227;-66
2022/06/21 11:59:39;;;;;;;9.63;7.10;;;;;;;31.18;33.81;94539.63;4961169;28;20228;-71
2022/06/21 12:02:24;;;;;;;11.18;7.28;;;;;;;31.17;34.18;94530.66;4963830;28;20223;-70
2022/06/21 12:05:20;;;;;;;8.88;7.20;;;;;;;31.37;33.67;94526.88;4984669;28;20301;-67
2022/06/21 12:08:24;;;;;;;7.10;6.43;;;;;;;31.51;33.14;94532.34;4978110;28;20203;-64
2022/06/21 12:11:15;;;;;;;7.82;7.03;;;;;;;31.44;32.74;94526.50;4950258;28;20215;-62
2022/06/21 12:13:58;;;;;;;7.80;7.03;;;;;;;31.54;33.31;94531.78;4997680;28;20249;-67
2022/06/21 12:16:32;;;;;;;10.02;6.97;;;;;;;31.72;32.52;94526.59;4983549;28;20602;-66
2022/06/21 12:19:05;;;;;;;8.27;7.03;;;;;;;31.88;32.77;94517.09;5000716;28;20233;-67
2022/06/21 12:21:34;;;;;;;11.10;7.18;;;;;;;32.06;33.73;94524.41;5018675;28;20352;-63
2022/06/21 12:24:12;;;;;;;9.82;6.72;;;;;;;32.07;32.41;94514.34;5036894;28;20275;-65
2022/06/21 12:26:41;;;;;;;10.50;6.93;;;;;;;32.18;32.22;94520.41;5002040;28;20468;-63
2022/06/21 12:29:13;;;;;;;6.95;6.28;;;;;;;32.01;31.89;94519.06;5019153;28;20227;-72
2022/06/21 12:31:44;;;;;;;8.02;6.88;;;;;;;31.67;32.41;94518.53;5018052;28;20210;-69